Annapolis Junction, Maryland
Current Conditions -  °F | °C
As of 7:42 PM on Monday 22 Dec 2014 (Local Time) from KFME Reporting Station
Scattered Clouds Scattered Clouds  
Wind Chill: -2°   Ceiling: Unl
Heat Index:   Visibility: 1.7mi
Dew Point:   Wind: 6mph
Humidity: 100%   Direction: 260°W
Pressure: 30.2"   Gusts: NA
Location:  39.13°N, 76.8°W
Report Text: KFME 230042Z AUTO 26005KT 1 3/4SM SCT007 01/01 A3020 RMK AO1
Loading
Personal Weather Stations






























Interactive Weather Map New forecast layout! Learn more

10-Day Weather Forecast

Advertisements
Track Severe Weather on mobile